createdAt,value
2023-02-11T00:01:45.792Z,8.00
2023-02-11T00:04:20.507Z,7.73
2023-02-11T00:06:48.763Z,7.43
2023-02-11T00:09:23.477Z,7.27
2023-02-11T00:11:58.525Z,7.37
2023-02-11T00:14:34.486Z,6.90
2023-02-11T00:17:02.697Z,6.67
2023-02-11T00:19:37.496Z,6.70
2023-02-11T00:22:05.862Z,7.07
2023-02-11T00:24:40.488Z,6.60
2023-02-11T00:27:08.690Z,6.00
2023-02-11T00:29:45.495Z,6.50
2023-02-11T00:32:14.025Z,5.90
2023-02-11T00:34:48.513Z,6.73
2023-02-11T00:37:17.727Z,6.43
2023-02-11T00:39:52.583Z,6.00
2023-02-11T00:42:21.291Z,6.10
2023-02-11T00:44:57.514Z,6.37
2023-02-11T00:47:25.855Z,6.07
2023-02-11T00:50:00.562Z,6.33
2023-02-11T00:52:28.779Z,5.93
2023-02-11T00:55:03.515Z,6.30
2023-02-11T00:57:31.786Z,6.47
2023-02-11T01:00:07.510Z,6.47
2023-02-11T01:02:35.856Z,5.70
2023-02-11T01:05:11.625Z,5.90
2023-02-11T01:07:39.834Z,6.27
2023-02-11T01:10:14.563Z,5.60
2023-02-11T01:12:49.763Z,5.33
2023-02-11T01:15:27.633Z,5.73
2023-02-11T01:17:55.944Z,5.83
2023-02-11T01:20:32.556Z,6.30
2023-02-11T01:23:00.819Z,5.33
2023-02-11T01:25:35.549Z,6.17
2023-02-11T01:28:03.838Z,5.97
2023-02-11T01:30:40.608Z,5.90
2023-02-11T01:33:08.889Z,5.63
2023-02-11T01:35:43.570Z,6.13
2023-02-11T01:38:17.650Z,5.60
2023-02-11T01:40:55.577Z,6.13
2023-02-11T01:43:24.080Z,6.17
2023-02-11T01:46:08.580Z,5.60
2023-02-11T01:48:40.467Z,5.67
2023-02-11T01:51:20.594Z,5.37
2023-02-11T01:54:15.599Z,6.40
2023-02-11T01:57:05.784Z,5.73
2023-02-11T01:59:43.635Z,5.23
2023-02-11T02:02:17.126Z,6.57
2023-02-11T02:04:58.748Z,5.23
2023-02-11T02:07:33.810Z,5.97
2023-02-11T02:10:21.584Z,5.70
2023-02-11T02:12:49.911Z,6.50
2023-02-11T02:15:37.588Z,7.00
2023-02-11T02:18:21.594Z,6.00
2023-02-11T02:21:24.596Z,5.53
2023-02-11T02:24:31.358Z,5.60
2023-02-11T02:27:37.635Z,5.87
2023-02-11T02:30:48.652Z,5.10
2023-02-11T02:33:51.654Z,5.23
2023-02-11T02:36:24.784Z,5.40
2023-02-11T02:39:04.624Z,5.30
2023-02-11T02:41:35.515Z,5.90
2023-02-11T02:44:10.607Z,5.70
2023-02-11T02:46:38.951Z,5.10
2023-02-11T02:49:21.595Z,5.53
2023-02-11T02:52:26.044Z,5.50
2023-02-11T02:55:38.639Z,5.60
2023-02-11T02:58:26.523Z,6.13
2023-02-11T03:01:10.747Z,6.50
2023-02-11T03:03:49.868Z,6.20
2023-02-11T03:06:32.619Z,5.90
2023-02-11T03:09:11.950Z,6.27
2023-02-11T03:11:53.647Z,6.13
2023-02-11T03:14:23.220Z,6.40
2023-02-11T03:16:59.668Z,6.70
2023-02-11T03:19:31.317Z,6.73
2023-02-11T03:22:10.668Z,6.73
2023-02-11T03:24:41.856Z,7.60
2023-02-11T03:27:24.662Z,6.80
2023-02-11T03:29:56.531Z,6.90
2023-02-11T03:32:35.671Z,6.80
2023-02-11T03:35:11.661Z,7.13
2023-02-11T03:37:51.717Z,7.00
2023-02-11T03:40:23.185Z,6.60
2023-02-11T03:43:01.665Z,7.20
2023-02-11T03:45:30.583Z,7.40
2023-02-11T03:48:10.671Z,7.97
2023-02-11T03:50:40.267Z,6.87
2023-02-11T03:53:17.677Z,6.47
2023-02-11T03:55:47.273Z,7.10
2023-02-11T03:58:21.690Z,6.90
2023-02-11T04:00:50.223Z,7.00
2023-02-11T04:03:25.803Z,7.30
2023-02-11T04:05:54.217Z,6.97
2023-02-11T04:08:30.692Z,7.30
2023-02-11T04:11:05.982Z,7.50
2023-02-11T04:13:47.699Z,6.63
2023-02-11T04:16:16.062Z,7.00
2023-02-11T04:18:50.707Z,7.20
2023-02-11T04:21:18.983Z,7.77
2023-02-11T04:23:54.731Z,7.00
2023-02-11T04:26:22.993Z,7.33
2023-02-11T04:28:57.701Z,7.20
2023-02-11T04:31:25.985Z,6.73
2023-02-11T04:34:00.721Z,7.17
2023-02-11T04:36:28.948Z,7.83
2023-02-11T04:39:04.716Z,7.03
2023-02-11T04:41:33.299Z,7.50
2023-02-11T04:44:07.717Z,7.67
2023-02-11T04:46:35.967Z,7.57
2023-02-11T04:49:11.754Z,7.67
2023-02-11T04:51:39.893Z,8.20
2023-02-11T04:54:16.721Z,7.53
2023-02-11T04:56:45.121Z,7.67
2023-02-11T04:59:20.732Z,8.10
2023-02-11T05:01:49.602Z,8.27
2023-02-11T05:04:24.797Z,7.77
2023-02-11T05:06:53.207Z,7.83
2023-02-11T05:09:29.740Z,8.10
2023-02-11T05:12:03.949Z,8.30
2023-02-11T05:14:38.776Z,8.63
2023-02-11T05:17:07.114Z,8.53
2023-02-11T05:19:42.054Z,8.20
2023-02-11T05:22:10.316Z,9.67
2023-02-11T05:24:46.791Z,8.77
2023-02-11T05:27:15.187Z,9.50
2023-02-11T05:29:49.785Z,9.07
2023-02-11T05:32:17.960Z,8.87
2023-02-11T05:34:52.772Z,10.00
2023-02-11T05:37:21.101Z,9.90
2023-02-11T05:39:57.789Z,9.40
2023-02-11T05:42:26.010Z,10.00
2023-02-11T05:45:00.769Z,9.90
2023-02-11T05:47:29.111Z,10.23
2023-02-11T05:50:03.786Z,10.53
2023-02-11T05:52:31.946Z,10.63
2023-02-11T05:55:07.804Z,11.30
2023-02-11T05:57:36.219Z,10.73
2023-02-11T06:00:12.907Z,10.73
2023-02-11T06:02:41.199Z,11.30
2023-02-11T06:05:16.798Z,10.73
2023-02-11T06:07:45.113Z,11.70
2023-02-11T06:10:21.787Z,11.70
2023-02-11T06:13:04.062Z,11.93
2023-02-11T06:15:38.845Z,11.77
2023-02-11T06:18:07.496Z,11.80
2023-02-11T06:20:41.829Z,12.63
2023-02-11T06:23:10.258Z,11.57
2023-02-11T06:25:46.799Z,12.80
2023-02-11T06:28:15.074Z,11.93
2023-02-11T06:30:49.926Z,12.13
2023-02-11T06:33:18.435Z,12.43
2023-02-11T06:35:53.082Z,12.70
2023-02-11T06:38:21.432Z,13.03
2023-02-11T06:40:57.849Z,13.07
2023-02-11T06:43:26.311Z,13.67
2023-02-11T06:46:01.820Z,13.63
2023-02-11T06:48:30.023Z,13.00
2023-02-11T06:51:04.760Z,14.30
2023-02-11T06:53:33.289Z,13.50
2023-02-11T06:56:13.064Z,13.93
2023-02-11T06:58:41.607Z,13.83
2023-02-11T07:01:17.842Z,13.53
2023-02-11T07:03:46.826Z,14.23
2023-02-11T07:06:23.841Z,14.43
2023-02-11T07:08:52.275Z,14.50
2023-02-11T07:11:31.855Z,14.57
2023-02-11T07:14:03.249Z,14.40
2023-02-11T07:16:38.882Z,15.23
2023-02-11T07:19:07.141Z,14.53
2023-02-11T07:21:41.887Z,15.43
2023-02-11T07:24:11.405Z,14.67
2023-02-11T07:26:47.914Z,15.07
2023-02-11T07:29:16.163Z,15.27
2023-02-11T07:31:50.929Z,15.63
2023-02-11T07:34:25.874Z,16.17
2023-02-11T07:36:54.099Z,15.67
2023-02-11T07:39:28.862Z,16.30
2023-02-11T07:41:58.476Z,15.90
2023-02-11T07:44:32.886Z,16.40
2023-02-11T07:47:01.256Z,16.67
2023-02-11T07:49:35.900Z,17.37
2023-02-11T07:52:04.099Z,16.83
2023-02-11T07:54:38.942Z,17.47
2023-02-11T07:57:08.491Z,17.13
2023-02-11T07:59:43.904Z,16.80
2023-02-11T08:02:12.124Z,17.00
2023-02-11T08:04:46.909Z,17.37
2023-02-11T08:07:17.093Z,17.03
2023-02-11T08:09:58.900Z,18.17
2023-02-11T08:12:35.237Z,17.97
2023-02-11T08:15:09.931Z,17.00
2023-02-11T08:17:38.786Z,18.43
2023-02-11T08:20:14.931Z,18.43
2023-02-11T08:22:43.090Z,18.10
2023-02-11T08:25:17.942Z,18.77
2023-02-11T08:27:47.557Z,18.63
2023-02-11T08:30:24.160Z,18.43
2023-02-11T08:32:53.424Z,18.37
2023-02-11T08:35:27.908Z,18.07
2023-02-11T08:37:56.277Z,19.23
2023-02-11T08:40:31.936Z,19.20
2023-02-11T08:43:01.510Z,19.30
2023-02-11T08:45:36.008Z,19.23
2023-02-11T08:48:04.276Z,20.90
2023-02-11T08:50:38.918Z,19.90
2023-02-11T08:53:07.140Z,19.57
2023-02-11T08:55:41.917Z,20.73
2023-02-11T08:58:11.504Z,21.17
2023-02-11T09:00:46.966Z,21.93
2023-02-11T09:03:15.805Z,22.00
2023-02-11T09:05:50.986Z,20.63
2023-02-11T09:08:19.466Z,21.77
2023-02-11T09:11:00.955Z,21.17
2023-02-11T09:13:37.599Z,22.23
2023-02-11T09:16:13.993Z,22.27
2023-02-11T09:18:42.444Z,21.53
2023-02-11T09:21:18.947Z,21.53
2023-02-11T09:23:48.082Z,22.87
2023-02-11T09:26:24.948Z,22.90
2023-02-11T09:28:54.989Z,23.50
2023-02-11T09:31:32.377Z,23.73
2023-02-11T09:34:02.701Z,22.13
2023-02-11T09:36:39.975Z,23.07
2023-02-11T09:39:11.002Z,22.57
2023-02-11T09:42:19.002Z,23.80
2023-02-11T09:44:49.027Z,23.43
2023-02-11T09:47:32.960Z,23.73
2023-02-11T09:50:04.619Z,23.33
2023-02-11T09:52:45.983Z,24.07
2023-02-11T09:55:21.588Z,24.37
2023-02-11T09:57:57.085Z,24.73
2023-02-11T10:00:32.447Z,24.73
2023-02-11T10:03:35.017Z,25.10
2023-02-11T10:06:28.115Z,25.23
2023-02-11T10:09:05.843Z,24.63
2023-02-11T10:11:56.008Z,24.63
2023-02-11T10:14:38.892Z,23.83
2023-02-11T10:17:27.219Z,25.83
2023-02-11T10:20:15.845Z,24.87
2023-02-11T10:22:56.044Z,25.30
2023-02-11T10:25:27.005Z,25.43
2023-02-11T10:28:06.101Z,25.80
2023-02-11T10:30:44.060Z,26.33
2023-02-11T10:33:28.029Z,25.20
2023-02-11T10:35:56.228Z,24.90
2023-02-11T10:38:24.462Z,27.00
2023-02-11T10:40:59.001Z,26.83
2023-02-11T10:43:30.353Z,26.57
2023-02-11T10:46:07.069Z,26.60
2023-02-11T10:48:45.487Z,26.40
2023-02-11T10:51:29.051Z,26.87
2023-02-11T10:54:28.071Z,26.90
2023-02-11T10:57:01.084Z,26.27
2023-02-11T10:59:38.095Z,26.70
2023-02-11T11:02:19.391Z,27.53
2023-02-11T11:04:56.141Z,27.50
2023-02-11T11:07:27.250Z,28.17
2023-02-11T11:10:06.079Z,27.90
2023-02-11T11:12:52.079Z,28.30
2023-02-11T11:15:30.062Z,29.33
2023-02-11T11:18:21.863Z,28.43
2023-02-11T11:21:06.445Z,29.10
2023-02-11T11:23:37.829Z,27.83
2023-02-11T11:26:15.077Z,27.57
2023-02-11T11:28:52.184Z,28.30
2023-02-11T11:31:30.228Z,28.13
2023-02-11T11:34:00.545Z,28.07
2023-02-11T11:36:44.073Z,28.37
2023-02-11T11:39:26.041Z,27.50
2023-02-11T11:42:04.065Z,26.97
2023-02-11T11:44:34.144Z,27.77
2023-02-11T11:47:33.089Z,28.80
2023-02-11T11:50:24.715Z,27.90
2023-02-11T11:53:07.081Z,27.43
2023-02-11T11:55:41.802Z,27.67
2023-02-11T11:58:24.137Z,27.57
2023-02-11T12:01:03.092Z,27.00
2023-02-11T12:04:00.101Z,28.20
2023-02-11T12:06:39.111Z,26.50
2023-02-11T12:09:24.083Z,27.00
2023-02-11T12:12:26.707Z,26.23
2023-02-11T12:15:14.297Z,26.73
2023-02-11T12:17:56.616Z,26.53
2023-02-11T12:20:40.121Z,26.80
2023-02-11T12:23:27.747Z,25.80
2023-02-11T12:26:13.120Z,26.23
2023-02-11T12:28:48.577Z,26.77
2023-02-11T12:31:35.219Z,25.67
2023-02-11T12:34:23.823Z,25.53
2023-02-11T12:37:19.104Z,26.00
2023-02-11T12:39:59.359Z,27.03
2023-02-11T12:43:17.161Z,26.63
2023-02-11T12:46:18.256Z,26.73
2023-02-11T12:49:32.133Z,26.60
2023-02-11T12:52:10.863Z,26.10
2023-02-11T12:54:51.128Z,26.53
2023-02-11T12:57:23.549Z,27.47
2023-02-11T13:00:06.158Z,26.13
2023-02-11T13:02:43.489Z,26.90
2023-02-11T13:05:31.175Z,27.07
2023-02-11T13:08:05.722Z,26.07
2023-02-11T13:10:43.181Z,26.73
2023-02-11T13:13:23.357Z,27.53
2023-02-11T13:16:06.201Z,26.07
2023-02-11T13:18:45.869Z,26.10
2023-02-11T13:21:59.203Z,26.17
2023-02-11T13:24:42.211Z,25.83
2023-02-11T13:27:23.687Z,26.50
2023-02-11T13:30:34.206Z,26.03
2023-02-11T13:33:18.338Z,27.10
2023-02-11T13:35:58.187Z,27.07
2023-02-11T13:38:28.654Z,27.10
2023-02-11T13:41:11.205Z,26.13
2023-02-11T13:43:39.478Z,26.63
2023-02-11T13:46:16.280Z,26.07
2023-02-11T13:48:52.649Z,25.97
2023-02-11T13:51:44.174Z,26.23
2023-02-11T13:54:24.637Z,26.63
2023-02-11T13:57:24.215Z,26.03
2023-02-11T13:59:54.006Z,25.87
2023-02-11T14:02:50.298Z,26.93
2023-02-11T14:05:55.501Z,27.37
2023-02-11T14:08:51.205Z,27.90
2023-02-11T14:12:06.227Z,27.53
2023-02-11T14:14:36.184Z,25.87
2023-02-11T14:17:39.217Z,26.77
2023-02-11T14:20:44.129Z,27.27
2023-02-11T14:23:34.248Z,26.57
2023-02-11T14:26:25.146Z,28.10
2023-02-11T14:29:09.274Z,26.93
2023-02-11T14:31:43.350Z,28.17
2023-02-11T14:34:47.242Z,27.07
2023-02-11T14:37:23.741Z,28.47
2023-02-11T14:40:16.281Z,29.03
2023-02-11T14:42:44.842Z,28.93
2023-02-11T14:45:27.320Z,28.37
2023-02-11T14:48:03.970Z,27.43
2023-02-11T14:50:45.229Z,28.30
2023-02-11T14:53:18.045Z,28.53
2023-02-11T14:55:57.279Z,28.13
2023-02-11T14:58:27.457Z,28.23
2023-02-11T15:01:05.300Z,28.73
2023-02-11T15:03:36.224Z,28.57
2023-02-11T15:06:15.302Z,27.63
2023-02-11T15:08:46.982Z,27.90
2023-02-11T15:11:25.305Z,28.43
2023-02-11T15:14:14.285Z,28.53
2023-02-11T15:16:44.164Z,28.77
2023-02-11T15:19:34.262Z,28.63
2023-02-11T15:22:05.380Z,28.03
2023-02-11T15:24:42.267Z,27.93
2023-02-11T15:27:16.263Z,28.70
2023-02-11T15:29:53.305Z,29.87
2023-02-11T15:32:23.532Z,28.57
2023-02-11T15:35:00.315Z,29.17
2023-02-11T15:37:30.512Z,28.87
2023-02-11T15:40:17.306Z,29.37
2023-02-11T15:42:58.618Z,28.67
2023-02-11T15:45:38.288Z,29.23
2023-02-11T15:48:13.533Z,29.23
2023-02-11T15:50:50.545Z,28.83
2023-02-11T15:53:24.724Z,30.53
2023-02-11T15:56:03.306Z,29.53
2023-02-11T15:58:37.998Z,29.53
2023-02-11T16:01:14.327Z,29.93
2023-02-11T16:03:43.744Z,29.37
2023-02-11T16:06:26.340Z,29.73
2023-02-11T16:09:02.644Z,29.53
2023-02-11T16:11:46.276Z,29.13
2023-02-11T16:14:25.733Z,29.57
2023-02-11T16:17:04.350Z,29.77
2023-02-11T16:19:34.066Z,30.10
2023-02-11T16:22:15.336Z,29.40
2023-02-11T16:24:43.690Z,30.10
2023-02-11T16:27:29.346Z,31.70
2023-02-11T16:29:59.783Z,31.73
2023-02-11T16:32:36.348Z,31.27
2023-02-11T16:35:12.118Z,30.73
2023-02-11T16:37:47.507Z,30.27
2023-02-11T16:40:16.120Z,31.87
2023-02-11T16:42:50.339Z,32.00
2023-02-11T16:45:19.990Z,31.63
2023-02-11T16:47:54.362Z,31.23
2023-02-11T16:50:24.520Z,32.07
2023-02-11T16:53:00.392Z,31.83
2023-02-11T16:55:28.719Z,33.87
2023-02-11T16:58:03.380Z,34.73
2023-02-11T17:00:33.064Z,45.83
2023-02-11T17:03:07.355Z,38.07
2023-02-11T17:05:53.174Z,82.10
2023-02-11T17:08:29.356Z,60.03
2023-02-11T17:11:03.627Z,51.43
2023-02-11T17:13:46.378Z,43.07
2023-02-11T17:16:22.714Z,33.53
2023-02-11T17:18:57.378Z,36.03
2023-02-11T17:21:29.526Z,100.53
2023-02-11T17:24:04.400Z,35.47
2023-02-11T17:26:32.590Z,32.73
2023-02-11T17:29:07.450Z,33.50
2023-02-11T17:31:37.655Z,34.20
2023-02-11T17:34:12.396Z,31.50
2023-02-11T17:36:41.404Z,32.93
2023-02-11T17:39:16.415Z,32.50
2023-02-11T17:41:44.633Z,34.07
2023-02-11T17:44:20.434Z,33.87
2023-02-11T17:46:49.984Z,32.97
2023-02-11T17:49:24.396Z,32.47
2023-02-11T17:51:52.888Z,32.73
2023-02-11T17:54:28.397Z,32.80
2023-02-11T17:56:58.441Z,33.63
2023-02-11T17:59:38.407Z,34.23
2023-02-11T18:02:09.186Z,34.23
2023-02-11T18:04:43.454Z,33.83
2023-02-11T18:07:12.059Z,34.60
2023-02-11T18:09:47.430Z,34.73
2023-02-11T18:12:32.419Z,34.33
2023-02-11T18:15:00.590Z,33.87
2023-02-11T18:17:36.458Z,35.10
2023-02-11T18:20:05.436Z,34.63
2023-02-11T18:22:45.434Z,36.87
2023-02-11T18:25:16.213Z,35.20
2023-02-11T18:27:51.432Z,37.33
2023-02-11T18:30:22.633Z,40.43
2023-02-11T18:33:03.614Z,42.20
2023-02-11T18:35:31.771Z,39.73
2023-02-11T18:38:06.460Z,41.60
2023-02-11T18:40:35.504Z,39.17
2023-02-11T18:43:10.448Z,49.60
2023-02-11T18:45:38.627Z,53.97
2023-02-11T18:48:14.446Z,58.83
2023-02-11T18:50:44.574Z,79.30
2023-02-11T18:53:22.484Z,59.60
2023-02-11T18:55:51.199Z,39.20
2023-02-11T18:58:27.492Z,38.47
2023-02-11T19:00:55.713Z,36.67
2023-02-11T19:03:31.460Z,37.23
2023-02-11T19:05:59.580Z,38.67
2023-02-11T19:08:34.468Z,36.07
2023-02-11T19:11:23.449Z,37.57
2023-02-11T19:13:58.494Z,39.17
2023-02-11T19:16:26.683Z,37.37
2023-02-11T19:19:04.480Z,44.27
2023-02-11T19:21:32.984Z,41.60
2023-02-11T19:24:08.479Z,40.23
2023-02-11T19:26:37.820Z,40.33
2023-02-11T19:29:13.512Z,38.63
2023-02-11T19:31:42.080Z,39.00
2023-02-11T19:34:19.496Z,38.00
2023-02-11T19:36:48.980Z,42.63
2023-02-11T19:39:23.497Z,42.50
2023-02-11T19:41:51.665Z,39.30
2023-02-11T19:44:26.477Z,37.73
2023-02-11T19:46:54.834Z,39.30
2023-02-11T19:49:32.499Z,39.53
2023-02-11T19:52:00.792Z,40.33
2023-02-11T19:54:37.517Z,40.97
2023-02-11T19:57:05.954Z,39.20
2023-02-11T19:59:40.480Z,39.90
2023-02-11T20:02:08.895Z,38.93
2023-02-11T20:04:45.517Z,38.73
2023-02-11T20:07:16.518Z,37.47
2023-02-11T20:09:51.542Z,44.00
2023-02-11T20:12:26.520Z,42.93
2023-02-11T20:15:01.517Z,42.33
2023-02-11T20:17:29.785Z,43.33
2023-02-11T20:20:05.538Z,43.67
2023-02-11T20:22:33.861Z,44.17
2023-02-11T20:25:08.505Z,40.60
2023-02-11T20:27:36.631Z,40.43
2023-02-11T20:30:11.507Z,43.37
2023-02-11T20:32:39.699Z,41.97
2023-02-11T20:35:16.768Z,40.97
2023-02-11T20:37:44.987Z,41.17
2023-02-11T20:40:20.546Z,42.37
2023-02-11T20:42:48.765Z,42.07
2023-02-11T20:45:23.515Z,41.53
2023-02-11T20:47:51.649Z,41.10
2023-02-11T20:50:27.545Z,43.20
2023-02-11T20:52:55.692Z,41.30
2023-02-11T20:55:30.560Z,44.13
2023-02-11T20:57:59.135Z,44.40
2023-02-11T21:00:33.595Z,42.97
2023-02-11T21:03:01.832Z,42.17
2023-02-11T21:05:38.596Z,39.57
2023-02-11T21:08:06.876Z,41.47
2023-02-11T21:10:42.614Z,40.80
2023-02-11T21:13:18.086Z,40.27
2023-02-11T21:16:01.832Z,39.50
2023-02-11T21:18:30.103Z,39.80
2023-02-11T21:21:07.099Z,40.80
2023-02-11T21:23:35.831Z,41.53
2023-02-11T21:26:10.585Z,40.70
2023-02-11T21:28:41.048Z,40.90
2023-02-11T21:31:15.723Z,40.90
2023-02-11T21:33:43.935Z,39.73
2023-02-11T21:36:21.732Z,39.97
2023-02-11T21:38:50.093Z,39.37
2023-02-11T21:41:25.614Z,38.93
2023-02-11T21:43:54.190Z,38.97
2023-02-11T21:46:29.665Z,38.03
2023-02-11T21:49:00.342Z,39.60
2023-02-11T21:51:36.623Z,38.10
2023-02-11T21:54:05.403Z,38.70
2023-02-11T21:56:41.632Z,36.90
2023-02-11T21:59:12.603Z,37.53
2023-02-11T22:01:47.598Z,37.60
2023-02-11T22:04:25.668Z,37.87
2023-02-11T22:06:55.243Z,37.77
2023-02-11T22:09:29.625Z,37.83
2023-02-11T22:12:04.199Z,37.43
2023-02-11T22:14:46.647Z,37.27
2023-02-11T22:17:17.235Z,38.47
2023-02-11T22:19:51.666Z,40.47
2023-02-11T22:22:21.295Z,40.30
2023-02-11T22:24:55.645Z,38.83
2023-02-11T22:27:24.023Z,39.37
2023-02-11T22:29:58.648Z,38.93
2023-02-11T22:32:26.805Z,37.67
2023-02-11T22:35:01.683Z,37.47
2023-02-11T22:37:31.263Z,38.67
2023-02-11T22:40:05.667Z,39.83
2023-02-11T22:42:33.843Z,39.80
2023-02-11T22:45:09.684Z,38.23
2023-02-11T22:47:38.911Z,40.17
2023-02-11T22:50:14.730Z,38.87
2023-02-11T22:52:44.296Z,37.33
2023-02-11T22:55:18.673Z,36.50
2023-02-11T22:57:47.243Z,37.07
2023-02-11T23:00:23.649Z,36.40
2023-02-11T23:02:51.908Z,37.07
2023-02-11T23:05:26.651Z,38.00
2023-02-11T23:07:56.283Z,37.00
2023-02-11T23:10:30.748Z,37.50
2023-02-11T23:13:05.876Z,36.17
2023-02-11T23:15:40.757Z,36.27
2023-02-11T23:18:10.055Z,37.43
2023-02-11T23:20:46.662Z,37.67
2023-02-11T23:23:16.203Z,35.37
2023-02-11T23:25:51.682Z,36.47
2023-02-11T23:28:19.974Z,38.60
2023-02-11T23:30:54.752Z,37.43
2023-02-11T23:33:23.346Z,35.47
2023-02-11T23:35:57.714Z,37.43
2023-02-11T23:38:27.318Z,37.77
2023-02-11T23:41:01.709Z,35.47
2023-02-11T23:43:29.919Z,34.30
2023-02-11T23:46:04.850Z,36.13
2023-02-11T23:48:33.817Z,36.07
2023-02-11T23:51:08.715Z,34.97
2023-02-11T23:53:38.662Z,35.43
2023-02-11T23:56:17.740Z,34.87
2023-02-11T23:58:48.272Z,35.07
